sensor_id;sensor_type;location;lat;lon;timestamp;temperature;humidity
7174;DHT22;3628;48.654;8.932;2023-06-10T00:01:27;20.50;99.90
7174;DHT22;3628;48.654;8.932;2023-06-10T00:03:53;20.40;99.90
7174;DHT22;3628;48.654;8.932;2023-06-10T00:06:19;20.30;99.90
7174;DHT22;3628;48.654;8.932;2023-06-10T00:08:47;20.00;99.90
7174;DHT22;3628;48.654;8.932;2023-06-10T00:11:13;20.10;99.90
7174;DHT22;3628;48.654;8.932;2023-06-10T00:13:38;20.00;99.90
7174;DHT22;3628;48.654;8.932;2023-06-10T00:16:04;19.90;99.90
7174;DHT22;3628;48.654;8.932;2023-06-10T00:18:30;20.00;99.90
7174;DHT22;3628;48.654;8.932;2023-06-10T00:20:57;20.20;99.90
7174;DHT22;3628;48.654;8.932;2023-06-10T00:23:28;20.10;99.90
7174;DHT22;3628;48.654;8.932;2023-06-10T00:25:59;19.90;99.90
7174;DHT22;3628;48.654;8.932;2023-06-10T00:28:25;19.50;99.90
7174;DHT22;3628;48.654;8.932;2023-06-10T00:30:51;19.30;99.90
7174;DHT22;3628;48.654;8.932;2023-06-10T00:33:16;19.20;99.90
7174;DHT22;3628;48.654;8.932;2023-06-10T00:35:42;19.10;99.90
7174;DHT22;3628;48.654;8.932;2023-06-10T00:38:08;19.20;99.90
7174;DHT22;3628;48.654;8.932;2023-06-10T00:40:39;19.40;99.90
7174;DHT22;3628;48.654;8.932;2023-06-10T00:43:06;19.40;99.90
7174;DHT22;3628;48.654;8.932;2023-06-10T00:45:31;19.10;99.90
7174;DHT22;3628;48.654;8.932;2023-06-10T00:47:58;18.80;99.90
7174;DHT22;3628;48.654;8.932;2023-06-10T00:50:23;18.50;99.90
7174;DHT22;3628;48.654;8.932;2023-06-10T00:52:49;18.50;99.90
7174;DHT22;3628;48.654;8.932;2023-06-10T00:55:17;18.40;99.90
7174;DHT22;3628;48.654;8.932;2023-06-10T00:57:44;18.50;99.90
7174;DHT22;3628;48.654;8.932;2023-06-10T01:00:11;18.50;99.90
7174;DHT22;3628;48.654;8.932;2023-06-10T01:02:38;18.70;99.90
7174;DHT22;3628;48.654;8.932;2023-06-10T01:05:03;18.50;99.90
7174;DHT22;3628;48.654;8.932;2023-06-10T01:08:14;18.60;99.90
7174;DHT22;3628;48.654;8.932;2023-06-10T01:10:50;18.70;99.90
7174;DHT22;3628;48.654;8.932;2023-06-10T01:13:17;18.90;99.90
7174;DHT22;3628;48.654;8.932;2023-06-10T01:15:43;18.90;99.90
7174;DHT22;3628;48.654;8.932;2023-06-10T01:18:10;18.90;99.90
7174;DHT22;3628;48.654;8.932;2023-06-10T01:20:41;19.00;99.90
7174;DHT22;3628;48.654;8.932;2023-06-10T01:23:07;19.00;99.90
7174;DHT22;3628;48.654;8.932;2023-06-10T01:25:33;18.80;99.90
7174;DHT22;3628;48.654;8.932;2023-06-10T01:31:03;18.70;99.90
7174;DHT22;3628;48.654;8.932;2023-06-10T01:33:36;18.60;99.90
7174;DHT22;3628;48.654;8.932;2023-06-10T01:36:03;18.40;99.90
7174;DHT22;3628;48.654;8.932;2023-06-10T01:38:36;18.50;99.90
7174;DHT22;3628;48.654;8.932;2023-06-10T01:41:03;18.40;99.90
7174;DHT22;3628;48.654;8.932;2023-06-10T01:43:33;18.70;99.90
7174;DHT22;3628;48.654;8.932;2023-06-10T01:45:58;18.90;99.90
7174;DHT22;3628;48.654;8.932;2023-06-10T01:48:24;18.80;99.90
7174;DHT22;3628;48.654;8.932;2023-06-10T01:50:49;18.60;99.90
7174;DHT22;3628;48.654;8.932;2023-06-10T01:53:15;18.50;99.90
7174;DHT22;3628;48.654;8.932;2023-06-10T01:55:41;18.50;99.90
7174;DHT22;3628;48.654;8.932;2023-06-10T01:58:06;18.40;99.90
7174;DHT22;3628;48.654;8.932;2023-06-10T02:00:32;18.40;99.90
7174;DHT22;3628;48.654;8.932;2023-06-10T02:02:57;18.40;99.90
7174;DHT22;3628;48.654;8.932;2023-06-10T02:05:23;18.20;99.90
7174;DHT22;3628;48.654;8.932;2023-06-10T02:07:48;18.20;99.90
7174;DHT22;3628;48.654;8.932;2023-06-10T02:10:14;18.30;99.90
7174;DHT22;3628;48.654;8.932;2023-06-10T02:12:39;18.60;99.90
7174;DHT22;3628;48.654;8.932;2023-06-10T02:15:05;19.00;99.90
7174;DHT22;3628;48.654;8.932;2023-06-10T02:17:31;18.80;99.90
7174;DHT22;3628;48.654;8.932;2023-06-10T02:19:57;18.90;99.90
7174;DHT22;3628;48.654;8.932;2023-06-10T02:22:25;18.40;99.90
7174;DHT22;3628;48.654;8.932;2023-06-10T02:24:50;18.50;99.90
7174;DHT22;3628;48.654;8.932;2023-06-10T02:27:16;18.70;99.90
7174;DHT22;3628;48.654;8.932;2023-06-10T02:29:42;18.70;99.90
7174;DHT22;3628;48.654;8.932;2023-06-10T02:32:09;18.80;99.90
7174;DHT22;3628;48.654;8.932;2023-06-10T02:34:34;18.90;99.90
7174;DHT22;3628;48.654;8.932;2023-06-10T02:37:02;19.00;99.90
7174;DHT22;3628;48.654;8.932;2023-06-10T02:39:28;18.80;99.90
7174;DHT22;3628;48.654;8.932;2023-06-10T02:41:53;18.80;99.90
7174;DHT22;3628;48.654;8.932;2023-06-10T02:44:19;18.60;99.90
7174;DHT22;3628;48.654;8.932;2023-06-10T02:46:44;18.40;99.90
7174;DHT22;3628;48.654;8.932;2023-06-10T02:49:11;18.10;99.90
7174;DHT22;3628;48.654;8.932;2023-06-10T02:51:37;18.20;99.90
7174;DHT22;3628;48.654;8.932;2023-06-10T02:54:03;18.10;99.90
7174;DHT22;3628;48.654;8.932;2023-06-10T02:56:29;18.00;99.90
7174;DHT22;3628;48.654;8.932;2023-06-10T02:58:54;17.90;99.90
7174;DHT22;3628;48.654;8.932;2023-06-10T03:01:20;17.80;99.90
7174;DHT22;3628;48.654;8.932;2023-06-10T03:03:46;18.10;99.90
7174;DHT22;3628;48.654;8.932;2023-06-10T03:06:12;18.10;99.90
7174;DHT22;3628;48.654;8.932;2023-06-10T03:08:39;18.20;99.90
7174;DHT22;3628;48.654;8.932;2023-06-10T03:11:04;18.10;99.90
7174;DHT22;3628;48.654;8.932;2023-06-10T03:13:31;18.20;99.90
7174;DHT22;3628;48.654;8.932;2023-06-10T03:15:57;18.30;99.90
7174;DHT22;3628;48.654;8.932;2023-06-10T03:18:26;18.40;99.90
7174;DHT22;3628;48.654;8.932;2023-06-10T03:20:52;18.50;99.90
7174;DHT22;3628;48.654;8.932;2023-06-10T03:23:18;18.60;99.90
7174;DHT22;3628;48.654;8.932;2023-06-10T03:25:44;18.60;99.90
7174;DHT22;3628;48.654;8.932;2023-06-10T03:28:10;18.70;99.90
7174;DHT22;3628;48.654;8.932;2023-06-10T03:30:36;18.80;99.90
7174;DHT22;3628;48.654;8.932;2023-06-10T03:33:01;18.80;99.90
7174;DHT22;3628;48.654;8.932;2023-06-10T03:35:27;18.80;99.90
7174;DHT22;3628;48.654;8.932;2023-06-10T03:37:52;18.90;99.90
7174;DHT22;3628;48.654;8.932;2023-06-10T03:40:18;18.80;99.90
7174;DHT22;3628;48.654;8.932;2023-06-10T03:42:43;18.90;99.90
7174;DHT22;3628;48.654;8.932;2023-06-10T03:45:10;19.00;99.90
7174;DHT22;3628;48.654;8.932;2023-06-10T03:47:36;19.00;99.90
7174;DHT22;3628;48.654;8.932;2023-06-10T03:50:03;18.90;99.90
7174;DHT22;3628;48.654;8.932;2023-06-10T03:52:29;18.70;99.90
7174;DHT22;3628;48.654;8.932;2023-06-10T03:54:55;18.60;99.90
7174;DHT22;3628;48.654;8.932;2023-06-10T03:57:20;18.80;99.90
7174;DHT22;3628;48.654;8.932;2023-06-10T03:59:46;18.60;99.90
7174;DHT22;3628;48.654;8.932;2023-06-10T04:02:12;18.40;99.90
7174;DHT22;3628;48.654;8.932;2023-06-10T04:04:37;18.60;99.90
7174;DHT22;3628;48.654;8.932;2023-06-10T04:07:04;18.80;99.90
7174;DHT22;3628;48.654;8.932;2023-06-10T04:09:29;18.70;99.90
7174;DHT22;3628;48.654;8.932;2023-06-10T04:11:55;18.80;99.90
7174;DHT22;3628;48.654;8.932;2023-06-10T04:14:21;18.70;99.90
7174;DHT22;3628;48.654;8.932;2023-06-10T04:16:46;19.10;99.90
7174;DHT22;3628;48.654;8.932;2023-06-10T04:19:12;19.40;99.90
7174;DHT22;3628;48.654;8.932;2023-06-10T04:21:37;19.60;99.90
7174;DHT22;3628;48.654;8.932;2023-06-10T04:24:03;19.80;99.90
7174;DHT22;3628;48.654;8.932;2023-06-10T04:26:29;19.90;99.90
7174;DHT22;3628;48.654;8.932;2023-06-10T04:28:54;20.10;99.90
7174;DHT22;3628;48.654;8.932;2023-06-10T04:31:20;20.20;99.90
7174;DHT22;3628;48.654;8.932;2023-06-10T04:33:46;20.30;99.90
7174;DHT22;3628;48.654;8.932;2023-06-10T04:36:11;20.10;99.90
7174;DHT22;3628;48.654;8.932;2023-06-10T04:38:37;20.10;99.90
7174;DHT22;3628;48.654;8.932;2023-06-10T04:41:03;20.00;99.90
7174;DHT22;3628;48.654;8.932;2023-06-10T04:43:29;19.90;99.90
7174;DHT22;3628;48.654;8.932;2023-06-10T04:45:56;19.80;99.90
7174;DHT22;3628;48.654;8.932;2023-06-10T04:48:21;19.90;99.90
7174;DHT22;3628;48.654;8.932;2023-06-10T04:50:49;19.80;99.90
7174;DHT22;3628;48.654;8.932;2023-06-10T04:53:15;20.00;99.90
7174;DHT22;3628;48.654;8.932;2023-06-10T04:55:42;20.10;99.90
7174;DHT22;3628;48.654;8.932;2023-06-10T04:58:07;20.30;99.90
7174;DHT22;3628;48.654;8.932;2023-06-10T05:00:33;20.40;99.90
7174;DHT22;3628;48.654;8.932;2023-06-10T05:02:58;20.40;99.90
7174;DHT22;3628;48.654;8.932;2023-06-10T05:05:24;20.40;99.90
7174;DHT22;3628;48.654;8.932;2023-06-10T05:07:49;20.50;99.90
7174;DHT22;3628;48.654;8.932;2023-06-10T05:10:15;20.40;99.90
7174;DHT22;3628;48.654;8.932;2023-06-10T05:12:41;20.40;99.90
7174;DHT22;3628;48.654;8.932;2023-06-10T05:15:07;20.30;99.90
7174;DHT22;3628;48.654;8.932;2023-06-10T05:17:33;20.10;99.90
7174;DHT22;3628;48.654;8.932;2023-06-10T05:19:58;20.30;99.90
7174;DHT22;3628;48.654;8.932;2023-06-10T05:22:24;20.30;99.90
7174;DHT22;3628;48.654;8.932;2023-06-10T05:24:50;20.50;99.90
7174;DHT22;3628;48.654;8.932;2023-06-10T05:27:16;20.50;99.90
7174;DHT22;3628;48.654;8.932;2023-06-10T05:29:42;20.50;99.90
7174;DHT22;3628;48.654;8.932;2023-06-10T05:32:08;20.70;99.90
7174;DHT22;3628;48.654;8.932;2023-06-10T05:34:33;20.80;99.90
7174;DHT22;3628;48.654;8.932;2023-06-10T05:36:59;21.00;99.90
7174;DHT22;3628;48.654;8.932;2023-06-10T05:39:25;21.00;99.90
7174;DHT22;3628;48.654;8.932;2023-06-10T05:41:50;21.10;99.90
7174;DHT22;3628;48.654;8.932;2023-06-10T05:44:16;21.20;99.90
7174;DHT22;3628;48.654;8.932;2023-06-10T05:46:41;21.20;99.90
7174;DHT22;3628;48.654;8.932;2023-06-10T05:49:07;21.20;99.90
7174;DHT22;3628;48.654;8.932;2023-06-10T05:51:32;21.20;99.90
7174;DHT22;3628;48.654;8.932;2023-06-10T05:53:58;21.30;99.90
7174;DHT22;3628;48.654;8.932;2023-06-10T05:56:24;21.50;99.90
7174;DHT22;3628;48.654;8.932;2023-06-10T05:58:51;21.60;99.90
7174;DHT22;3628;48.654;8.932;2023-06-10T06:01:16;21.80;99.90
7174;DHT22;3628;48.654;8.932;2023-06-10T06:03:42;21.80;99.90
7174;DHT22;3628;48.654;8.932;2023-06-10T06:06:07;21.90;99.90
7174;DHT22;3628;48.654;8.932;2023-06-10T06:08:33;22.00;99.90
7174;DHT22;3628;48.654;8.932;2023-06-10T06:10:59;22.00;99.90
7174;DHT22;3628;48.654;8.932;2023-06-10T06:13:24;22.10;99.90
7174;DHT22;3628;48.654;8.932;2023-06-10T06:15:50;22.20;99.90
7174;DHT22;3628;48.654;8.932;2023-06-10T06:18:16;22.40;99.90
7174;DHT22;3628;48.654;8.932;2023-06-10T06:20:41;22.50;99.90
7174;DHT22;3628;48.654;8.932;2023-06-10T06:23:07;22.60;99.90
7174;DHT22;3628;48.654;8.932;2023-06-10T06:25:35;22.70;99.90
7174;DHT22;3628;48.654;8.932;2023-06-10T06:28:01;22.80;99.90
7174;DHT22;3628;48.654;8.932;2023-06-10T06:30:27;22.90;99.90
7174;DHT22;3628;48.654;8.932;2023-06-10T06:32:53;23.00;99.90
7174;DHT22;3628;48.654;8.932;2023-06-10T06:35:18;23.10;99.90
7174;DHT22;3628;48.654;8.932;2023-06-10T06:37:44;23.20;99.90
7174;DHT22;3628;48.654;8.932;2023-06-10T06:40:10;23.30;99.90
7174;DHT22;3628;48.654;8.932;2023-06-10T06:42:36;23.30;99.90
7174;DHT22;3628;48.654;8.932;2023-06-10T06:45:01;23.40;99.90
7174;DHT22;3628;48.654;8.932;2023-06-10T06:47:27;23.30;99.90
7174;DHT22;3628;48.654;8.932;2023-06-10T06:49:53;23.30;99.90
7174;DHT22;3628;48.654;8.932;2023-06-10T06:52:19;23.30;99.90
7174;DHT22;3628;48.654;8.932;2023-06-10T06:54:45;23.40;99.90
7174;DHT22;3628;48.654;8.932;2023-06-10T06:57:10;23.60;99.90
7174;DHT22;3628;48.654;8.932;2023-06-10T06:59:36;23.70;99.90
7174;DHT22;3628;48.654;8.932;2023-06-10T07:02:03;23.80;99.90
7174;DHT22;3628;48.654;8.932;2023-06-10T07:04:28;23.70;99.90
7174;DHT22;3628;48.654;8.932;2023-06-10T07:06:54;23.90;99.90
7174;DHT22;3628;48.654;8.932;2023-06-10T07:09:19;23.80;99.90
7174;DHT22;3628;48.654;8.932;2023-06-10T07:11:45;23.80;99.90
7174;DHT22;3628;48.654;8.932;2023-06-10T07:14:10;24.00;99.90
7174;DHT22;3628;48.654;8.932;2023-06-10T07:16:36;24.10;99.90
7174;DHT22;3628;48.654;8.932;2023-06-10T07:19:02;24.30;99.50
7174;DHT22;3628;48.654;8.932;2023-06-10T07:21:27;24.40;99.20
7174;DHT22;3628;48.654;8.932;2023-06-10T07:23:54;24.60;99.30
7174;DHT22;3628;48.654;8.932;2023-06-10T07:26:22;24.40;98.80
7174;DHT22;3628;48.654;8.932;2023-06-10T07:28:48;24.40;99.50
7174;DHT22;3628;48.654;8.932;2023-06-10T07:31:13;24.40;99.10
7174;DHT22;3628;48.654;8.932;2023-06-10T07:33:39;24.30;98.50
7174;DHT22;3628;48.654;8.932;2023-06-10T07:36:06;24.20;98.70
7174;DHT22;3628;48.654;8.932;2023-06-10T07:38:31;24.30;99.20
7174;DHT22;3628;48.654;8.932;2023-06-10T07:40:57;24.30;98.10
7174;DHT22;3628;48.654;8.932;2023-06-10T07:43:24;24.30;98.10
7174;DHT22;3628;48.654;8.932;2023-06-10T07:45:50;24.50;97.30
7174;DHT22;3628;48.654;8.932;2023-06-10T07:48:15;24.60;97.30
7174;DHT22;3628;48.654;8.932;2023-06-10T07:50:41;24.90;96.90
7174;DHT22;3628;48.654;8.932;2023-06-10T07:53:07;25.10;95.50
7174;DHT22;3628;48.654;8.932;2023-06-10T07:55:32;25.30;95.00
7174;DHT22;3628;48.654;8.932;2023-06-10T07:57:58;25.40;94.40
7174;DHT22;3628;48.654;8.932;2023-06-10T08:00:23;25.40;93.90
7174;DHT22;3628;48.654;8.932;2023-06-10T08:02:49;25.50;93.40
7174;DHT22;3628;48.654;8.932;2023-06-10T08:05:16;25.60;93.30
7174;DHT22;3628;48.654;8.932;2023-06-10T08:07:42;25.70;93.10
7174;DHT22;3628;48.654;8.932;2023-06-10T08:10:07;25.70;92.20
7174;DHT22;3628;48.654;8.932;2023-06-10T08:12:34;25.80;91.70
7174;DHT22;3628;48.654;8.932;2023-06-10T08:15:00;25.70;91.30
7174;DHT22;3628;48.654;8.932;2023-06-10T08:17:25;25.50;91.30
7174;DHT22;3628;48.654;8.932;2023-06-10T08:19:51;25.40;91.50
7174;DHT22;3628;48.654;8.932;2023-06-10T08:22:16;25.40;91.20
7174;DHT22;3628;48.654;8.932;2023-06-10T08:24:43;25.50;91.00
7174;DHT22;3628;48.654;8.932;2023-06-10T08:27:08;25.40;90.60
7174;DHT22;3628;48.654;8.932;2023-06-10T08:29:34;25.30;90.80
7174;DHT22;3628;48.654;8.932;2023-06-10T08:32:00;25.60;91.10
7174;DHT22;3628;48.654;8.932;2023-06-10T08:34:25;25.80;90.20
7174;DHT22;3628;48.654;8.932;2023-06-10T08:36:51;26.10;90.40
7174;DHT22;3628;48.654;8.932;2023-06-10T08:39:19;26.20;90.00
7174;DHT22;3628;48.654;8.932;2023-06-10T08:41:58;26.40;89.80
7174;DHT22;3628;48.654;8.932;2023-06-10T08:44:29;26.70;88.60
7174;DHT22;3628;48.654;8.932;2023-06-10T08:46:59;26.60;86.70
7174;DHT22;3628;48.654;8.932;2023-06-10T08:49:27;26.30;87.70
7174;DHT22;3628;48.654;8.932;2023-06-10T08:52:02;26.30;87.80
7174;DHT22;3628;48.654;8.932;2023-06-10T08:54:32;26.60;88.30
7174;DHT22;3628;48.654;8.932;2023-06-10T08:57:01;27.00;86.10
7174;DHT22;3628;48.654;8.932;2023-06-10T08:59:29;27.10;84.40
7174;DHT22;3628;48.654;8.932;2023-06-10T09:01:55;27.20;83.80
7174;DHT22;3628;48.654;8.932;2023-06-10T09:04:20;27.30;83.40
7174;DHT22;3628;48.654;8.932;2023-06-10T09:06:47;27.30;83.50
7174;DHT22;3628;48.654;8.932;2023-06-10T09:09:15;27.20;83.00
7174;DHT22;3628;48.654;8.932;2023-06-10T09:11:42;27.20;82.60
7174;DHT22;3628;48.654;8.932;2023-06-10T09:14:08;26.90;81.20
7174;DHT22;3628;48.654;8.932;2023-06-10T09:16:34;26.80;82.10
7174;DHT22;3628;48.654;8.932;2023-06-10T09:19:01;27.00;81.40
7174;DHT22;3628;48.654;8.932;2023-06-10T09:21:33;27.30;81.50
7174;DHT22;3628;48.654;8.932;2023-06-10T09:23:58;27.60;81.20
7174;DHT22;3628;48.654;8.932;2023-06-10T09:26:28;27.80;79.90
7174;DHT22;3628;48.654;8.932;2023-06-10T09:29:02;28.00;79.50
7174;DHT22;3628;48.654;8.932;2023-06-10T09:31:28;28.00;77.90
7174;DHT22;3628;48.654;8.932;2023-06-10T09:33:54;28.00;77.90
7174;DHT22;3628;48.654;8.932;2023-06-10T09:36:23;28.00;78.00
7174;DHT22;3628;48.654;8.932;2023-06-10T09:38:49;28.00;75.60
7174;DHT22;3628;48.654;8.932;2023-06-10T09:41:16;27.40;76.10
7174;DHT22;3628;48.654;8.932;2023-06-10T09:43:44;27.40;75.80
7174;DHT22;3628;48.654;8.932;2023-06-10T09:46:19;27.20;75.00
7174;DHT22;3628;48.654;8.932;2023-06-10T09:48:47;27.10;75.00
7174;DHT22;3628;48.654;8.932;2023-06-10T09:51:14;27.30;75.30
7174;DHT22;3628;48.654;8.932;2023-06-10T09:53:40;27.30;74.20
7174;DHT22;3628;48.654;8.932;2023-06-10T09:56:06;27.60;74.20
7174;DHT22;3628;48.654;8.932;2023-06-10T09:58:37;27.80;74.20
7174;DHT22;3628;48.654;8.932;2023-06-10T10:01:06;28.10;72.90
7174;DHT22;3628;48.654;8.932;2023-06-10T10:03:33;28.00;73.20
7174;DHT22;3628;48.654;8.932;2023-06-10T10:05:59;28.10;73.20
7174;DHT22;3628;48.654;8.932;2023-06-10T10:08:28;28.20;73.30
7174;DHT22;3628;48.654;8.932;2023-06-10T10:10:55;28.40;72.10
7174;DHT22;3628;48.654;8.932;2023-06-10T10:13:21;28.60;72.40
7174;DHT22;3628;48.654;8.932;2023-06-10T10:15:47;28.60;70.80
7174;DHT22;3628;48.654;8.932;2023-06-10T10:18:16;28.90;71.70
7174;DHT22;3628;48.654;8.932;2023-06-10T10:20:50;28.90;70.40
7174;DHT22;3628;48.654;8.932;2023-06-10T10:23:26;28.80;71.40
7174;DHT22;3628;48.654;8.932;2023-06-10T10:25:55;28.20;72.60
7174;DHT22;3628;48.654;8.932;2023-06-10T10:28:24;28.30;72.70
7174;DHT22;3628;48.654;8.932;2023-06-10T10:30:54;28.30;73.10
7174;DHT22;3628;48.654;8.932;2023-06-10T10:33:23;28.60;72.50
7174;DHT22;3628;48.654;8.932;2023-06-10T10:35:54;28.50;71.40
7174;DHT22;3628;48.654;8.932;2023-06-10T10:38:21;28.50;71.00
7174;DHT22;3628;48.654;8.932;2023-06-10T10:40:47;28.70;70.50
7174;DHT22;3628;48.654;8.932;2023-06-10T10:43:14;29.30;69.40
7174;DHT22;3628;48.654;8.932;2023-06-10T10:45:41;29.70;69.50
7174;DHT22;3628;48.654;8.932;2023-06-10T10:48:10;30.40;69.40
7174;DHT22;3628;48.654;8.932;2023-06-10T10:50:37;30.70;65.50
7174;DHT22;3628;48.654;8.932;2023-06-10T10:53:05;31.10;64.60
7174;DHT22;3628;48.654;8.932;2023-06-10T10:55:31;31.30;63.90
7174;DHT22;3628;48.654;8.932;2023-06-10T10:58:04;31.10;64.10
7174;DHT22;3628;48.654;8.932;2023-06-10T11:00:35;31.10;61.60
7174;DHT22;3628;48.654;8.932;2023-06-10T11:05:39;31.40;61.70
7174;DHT22;3628;48.654;8.932;2023-06-10T11:08:05;31.60;59.90
7174;DHT22;3628;48.654;8.932;2023-06-10T11:10:51;31.90;59.60
7174;DHT22;3628;48.654;8.932;2023-06-10T11:13:21;31.80;59.00
7174;DHT22;3628;48.654;8.932;2023-06-10T11:15:48;31.90;59.10
7174;DHT22;3628;48.654;8.932;2023-06-10T11:18:35;31.60;59.00
7174;DHT22;3628;48.654;8.932;2023-06-10T11:21:04;31.30;58.30
7174;DHT22;3628;48.654;8.932;2023-06-10T11:23:32;30.80;58.80
7174;DHT22;3628;48.654;8.932;2023-06-10T11:31:23;29.30;61.30
7174;DHT22;3628;48.654;8.932;2023-06-10T11:33:56;29.10;60.60
7174;DHT22;3628;48.654;8.932;2023-06-10T11:36:23;29.50;59.80
7174;DHT22;3628;48.654;8.932;2023-06-10T11:38:49;29.60;58.30
7174;DHT22;3628;48.654;8.932;2023-06-10T11:41:15;29.70;58.40
7174;DHT22;3628;48.654;8.932;2023-06-10T11:43:43;29.80;59.80
7174;DHT22;3628;48.654;8.932;2023-06-10T11:46:10;29.90;60.20
7174;DHT22;3628;48.654;8.932;2023-06-10T11:48:36;30.40;59.70
7174;DHT22;3628;48.654;8.932;2023-06-10T11:51:06;30.70;58.80
7174;DHT22;3628;48.654;8.932;2023-06-10T11:53:32;30.80;57.90
7174;DHT22;3628;48.654;8.932;2023-06-10T11:55:57;31.00;57.80
7174;DHT22;3628;48.654;8.932;2023-06-10T11:58:23;31.00;58.20
7174;DHT22;3628;48.654;8.932;2023-06-10T12:00:53;31.40;57.30
7174;DHT22;3628;48.654;8.932;2023-06-10T12:03:20;31.30;58.00
7174;DHT22;3628;48.654;8.932;2023-06-10T12:08:20;31.30;57.00
7174;DHT22;3628;48.654;8.932;2023-06-10T12:10:46;31.80;56.90
7174;DHT22;3628;48.654;8.932;2023-06-10T12:13:12;31.80;57.10
7174;DHT22;3628;48.654;8.932;2023-06-10T12:15:37;31.40;56.20
7174;DHT22;3628;48.654;8.932;2023-06-10T12:18:03;30.50;57.10
7174;DHT22;3628;48.654;8.932;2023-06-10T12:20:32;30.00;57.90
7174;DHT22;3628;48.654;8.932;2023-06-10T12:23:00;29.90;58.30
7174;DHT22;3628;48.654;8.932;2023-06-10T12:25:28;29.70;57.70
7174;DHT22;3628;48.654;8.932;2023-06-10T12:27:56;29.70;58.00
7174;DHT22;3628;48.654;8.932;2023-06-10T12:30:27;29.50;58.20
7174;DHT22;3628;48.654;8.932;2023-06-10T12:32:53;29.50;58.10
7174;DHT22;3628;48.654;8.932;2023-06-10T12:35:23;29.30;58.90
7174;DHT22;3628;48.654;8.932;2023-06-10T12:37:59;29.20;59.10
7174;DHT22;3628;48.654;8.932;2023-06-10T12:40:47;29.30;59.30
7174;DHT22;3628;48.654;8.932;2023-06-10T12:43:13;29.50;59.40
7174;DHT22;3628;48.654;8.932;2023-06-10T12:45:39;29.90;59.30
7174;DHT22;3628;48.654;8.932;2023-06-10T12:48:19;30.10;59.00
7174;DHT22;3628;48.654;8.932;2023-06-10T12:50:51;30.30;58.00
7174;DHT22;3628;48.654;8.932;2023-06-10T12:53:18;30.30;57.10
7174;DHT22;3628;48.654;8.932;2023-06-10T12:55:45;30.50;57.60
7174;DHT22;3628;48.654;8.932;2023-06-10T12:58:11;30.60;57.10
7174;DHT22;3628;48.654;8.932;2023-06-10T13:00:37;30.60;56.70
7174;DHT22;3628;48.654;8.932;2023-06-10T13:03:03;30.70;57.00
7174;DHT22;3628;48.654;8.932;2023-06-10T13:05:31;31.10;56.80
7174;DHT22;3628;48.654;8.932;2023-06-10T13:07:57;31.60;55.80
7174;DHT22;3628;48.654;8.932;2023-06-10T13:10:24;31.80;55.30
7174;DHT22;3628;48.654;8.932;2023-06-10T13:12:50;31.10;54.60
7174;DHT22;3628;48.654;8.932;2023-06-10T13:15:16;30.50;56.20
7174;DHT22;3628;48.654;8.932;2023-06-10T13:17:45;30.20;56.70
7174;DHT22;3628;48.654;8.932;2023-06-10T13:20:16;29.80;56.60
7174;DHT22;3628;48.654;8.932;2023-06-10T13:22:43;29.90;57.60
7174;DHT22;3628;48.654;8.932;2023-06-10T13:25:09;30.40;57.50
7174;DHT22;3628;48.654;8.932;2023-06-10T13:27:36;30.60;56.30
7174;DHT22;3628;48.654;8.932;2023-06-10T13:30:08;30.90;56.60
7174;DHT22;3628;48.654;8.932;2023-06-10T13:32:34;31.10;57.10
7174;DHT22;3628;48.654;8.932;2023-06-10T13:34:59;31.10;56.20
7174;DHT22;3628;48.654;8.932;2023-06-10T13:37:25;30.60;55.90
7174;DHT22;3628;48.654;8.932;2023-06-10T13:39:51;30.30;56.60
7174;DHT22;3628;48.654;8.932;2023-06-10T13:42:17;30.10;57.00
7174;DHT22;3628;48.654;8.932;2023-06-10T13:44:43;29.90;56.90
7174;DHT22;3628;48.654;8.932;2023-06-10T13:47:09;29.50;57.90
7174;DHT22;3628;48.654;8.932;2023-06-10T13:49:35;29.00;58.50
7174;DHT22;3628;48.654;8.932;2023-06-10T13:52:01;28.60;58.90
7174;DHT22;3628;48.654;8.932;2023-06-10T13:54:27;28.60;60.10
7174;DHT22;3628;48.654;8.932;2023-06-10T13:56:53;28.40;59.70
7174;DHT22;3628;48.654;8.932;2023-06-10T13:59:19;28.20;60.40
7174;DHT22;3628;48.654;8.932;2023-06-10T14:01:45;28.60;61.00
7174;DHT22;3628;48.654;8.932;2023-06-10T14:04:11;28.90;59.10
7174;DHT22;3628;48.654;8.932;2023-06-10T14:06:36;29.20;58.90
7174;DHT22;3628;48.654;8.932;2023-06-10T14:09:03;29.40;58.00
7174;DHT22;3628;48.654;8.932;2023-06-10T14:11:28;29.70;57.30
7174;DHT22;3628;48.654;8.932;2023-06-10T14:13:54;29.80;56.30
7174;DHT22;3628;48.654;8.932;2023-06-10T14:16:22;29.90;56.00
7174;DHT22;3628;48.654;8.932;2023-06-10T14:18:47;30.10;56.90
7174;DHT22;3628;48.654;8.932;2023-06-10T14:21:13;30.10;57.10
7174;DHT22;3628;48.654;8.932;2023-06-10T14:23:38;30.60;56.60
7174;DHT22;3628;48.654;8.932;2023-06-10T14:26:04;31.00;56.40
7174;DHT22;3628;48.654;8.932;2023-06-10T14:28:32;30.90;55.60
7174;DHT22;3628;48.654;8.932;2023-06-10T14:30:58;31.10;56.00
7174;DHT22;3628;48.654;8.932;2023-06-10T14:33:23;30.90;54.80
7174;DHT22;3628;48.654;8.932;2023-06-10T14:35:49;30.40;55.40
7174;DHT22;3628;48.654;8.932;2023-06-10T14:38:15;30.10;56.90
7174;DHT22;3628;48.654;8.932;2023-06-10T14:40:40;30.00;56.70
7174;DHT22;3628;48.654;8.932;2023-06-10T14:43:06;29.50;56.90
7174;DHT22;3628;48.654;8.932;2023-06-10T14:45:39;29.30;57.40
7174;DHT22;3628;48.654;8.932;2023-06-10T14:48:05;29.20;57.80
7174;DHT22;3628;48.654;8.932;2023-06-10T14:50:31;29.10;58.10
7174;DHT22;3628;48.654;8.932;2023-06-10T14:52:58;29.00;58.00
7174;DHT22;3628;48.654;8.932;2023-06-10T14:55:23;29.00;58.30
7174;DHT22;3628;48.654;8.932;2023-06-10T14:57:49;29.30;58.10
7174;DHT22;3628;48.654;8.932;2023-06-10T15:00:15;29.50;57.70
7174;DHT22;3628;48.654;8.932;2023-06-10T15:02:45;29.50;58.00
7174;DHT22;3628;48.654;8.932;2023-06-10T15:05:12;29.50;57.40
7174;DHT22;3628;48.654;8.932;2023-06-10T15:07:37;29.60;57.60
7174;DHT22;3628;48.654;8.932;2023-06-10T15:10:03;30.20;57.20
7174;DHT22;3628;48.654;8.932;2023-06-10T15:12:29;30.30;55.50
7174;DHT22;3628;48.654;8.932;2023-06-10T15:14:54;30.10;55.70
7174;DHT22;3628;48.654;8.932;2023-06-10T15:17:20;30.60;55.60
7174;DHT22;3628;48.654;8.932;2023-06-10T15:19:45;30.30;55.10
7174;DHT22;3628;48.654;8.932;2023-06-10T15:22:11;30.40;54.90
7174;DHT22;3628;48.654;8.932;2023-06-10T15:24:38;30.40;54.80
7174;DHT22;3628;48.654;8.932;2023-06-10T15:27:04;30.40;54.60
7174;DHT22;3628;48.654;8.932;2023-06-10T15:29:30;30.10;55.10
7174;DHT22;3628;48.654;8.932;2023-06-10T15:31:56;30.30;55.10
7174;DHT22;3628;48.654;8.932;2023-06-10T15:34:21;30.50;55.20
7174;DHT22;3628;48.654;8.932;2023-06-10T15:36:47;30.70;55.30
7174;DHT22;3628;48.654;8.932;2023-06-10T15:39:13;30.80;54.70
7174;DHT22;3628;48.654;8.932;2023-06-10T15:41:38;30.90;54.50
7174;DHT22;3628;48.654;8.932;2023-06-10T15:44:04;31.10;55.00
7174;DHT22;3628;48.654;8.932;2023-06-10T15:46:30;30.40;55.00
7174;DHT22;3628;48.654;8.932;2023-06-10T15:48:56;30.00;55.90
7174;DHT22;3628;48.654;8.932;2023-06-10T15:51:22;29.70;56.50
7174;DHT22;3628;48.654;8.932;2023-06-10T15:53:48;29.40;57.30
7174;DHT22;3628;48.654;8.932;2023-06-10T15:56:14;29.30;57.80
7174;DHT22;3628;48.654;8.932;2023-06-10T15:58:40;29.30;58.30
7174;DHT22;3628;48.654;8.932;2023-06-10T16:01:06;29.20;58.30
7174;DHT22;3628;48.654;8.932;2023-06-10T16:03:34;29.00;58.40
7174;DHT22;3628;48.654;8.932;2023-06-10T16:06:00;29.10;58.40
7174;DHT22;3628;48.654;8.932;2023-06-10T16:08:25;29.00;58.80
7174;DHT22;3628;48.654;8.932;2023-06-10T16:10:51;29.20;58.70
7174;DHT22;3628;48.654;8.932;2023-06-10T16:13:16;29.50;58.20